Farragut, Iowa
Current Conditions -  °F | °C
As of 3:15 PM on Saturday 20 Dec 2014 (Local Time) from KSDA Reporting Station
Haze Haze  
Wind Chill: 30°   Ceiling: 800
Heat Index: 36°   Visibility: 5mi
Dew Point: 34°   Wind: 7mph
Humidity: 93%   Direction: 150°SSE
Pressure: 30.09"   Gusts: NA
Location:  40.72°N, 95.48°W
Report Text: KSDA 202115Z AUTO 15006KT 5SM BR OVC008 02/01 A3009 RMK AO2
Loading
Personal Weather Stations






























Interactive Weather Map New forecast layout! Learn more

10-Day Weather Forecast

Advertisements
Track Severe Weather on mobile